Terminal Aerodrome Forecast
Issued by NWS Grand Forks, ND

Home | Current Version | Previous Version | Graphics & Text | Print | Product List | Glossary On
Versions: 1 2 3 4 5 6 7 8 9 10 11 12 13 14 15 16 17 18 19 20 21 22
000
FTUS43 KFGF 221603 AAB
TAFGFK
TAF AMD
KGFK 221603Z 2216/2312 35015KT P6SM SCT010 BKN070
      TEMPO 2216/2218 BKN009
     FM221800 01012KT P6SM BKN012
     FM222200 02010KT P6SM BKN025
     FM230400 01009KT P6SM -RASN OVC025
     FM231100 03009KT P6SM OVC025=

USA.gov is the U.S. government's official web portal to all federal, state and local government web resources and services.